EZY94QE EGCC-EGNS
Flight info
| Callsign | EZY94QE |
|---|---|
| Flight time | 0h 27m |
| Altitude | 16000 |
| Route | EGCC/05L N0327F160 ASMI1S ASMIM L975 WAL M146 LUSOD DCT IOM DCT EGNS/08 |
| Aircraft | A319/M-SDE3FGHIRWY/LB1 |
Departure
| Time | 2026-05-03 20:55 |
|---|---|
| Airport | Manchester Airport (EGCC) |
Arrival
| Time | 2026-05-03 21:22 |
|---|---|
| Airport | Isle of Man Airport (EGNS) |
| Time | Latitude | Longitude | Altitude | Speed | Heading |
|---|---|---|---|---|---|
| 2026-05-03 20:16 | 53.35937 | -2.27418 | 244 ft | 0 kts | 275° |
| 2026-05-03 20:38 | 53.35936 | -2.27397 | 244 ft | 3 kts | 272° |
| 2026-05-03 20:38 | 53.35936 | -2.27364 | 244 ft | 3 kts | 261° |
| 2026-05-03 20:38 | 53.35941 | -2.27333 | 245 ft | 3 kts | 228° |
| 2026-05-03 20:39 | 53.35952 | -2.27319 | 245 ft | 1 kts | 182° |
| 2026-05-03 20:39 | 53.35953 | -2.27319 | 245 ft | 0 kts | 181° |
| 2026-05-03 20:42 | 53.35965 | -2.27317 | 245 ft | 2 kts | 209° |
| 2026-05-03 20:43 | 53.35977 | -2.27300 | 245 ft | 2 kts | 246° |
| 2026-05-03 20:43 | 53.35981 | -2.27278 | 245 ft | 0 kts | 269° |
| 2026-05-03 20:43 | 53.35977 | -2.27291 | 245 ft | 2 kts | 242° |
| 2026-05-03 20:43 | 53.35958 | -2.27314 | 245 ft | 5 kts | 210° |
| 2026-05-03 20:44 | 53.35921 | -2.27318 | 245 ft | 6 kts | 177° |
| 2026-05-03 20:44 | 53.35872 | -2.27314 | 244 ft | 8 kts | 177° |
| 2026-05-03 20:44 | 53.35815 | -2.27309 | 244 ft | 8 kts | 177° |
| 2026-05-03 20:44 | 53.35761 | -2.27273 | 244 ft | 9 kts | 146° |
| 2026-05-03 20:45 | 53.35706 | -2.27275 | 243 ft | 9 kts | 227° |
| 2026-05-03 20:45 | 53.35660 | -2.27370 | 242 ft | 11 kts | 230° |
| 2026-05-03 20:45 | 53.35605 | -2.27477 | 241 ft | 13 kts | 233° |
| 2026-05-03 20:45 | 53.35545 | -2.27605 | 239 ft | 15 kts | 230° |
| 2026-05-03 20:46 | 53.35473 | -2.27743 | 238 ft | 17 kts | 227° |
| 2026-05-03 20:46 | 53.35456 | -2.27895 | 237 ft | 10 kts | 265° |
| 2026-05-03 20:46 | 53.35411 | -2.27989 | 239 ft | 11 kts | 223° |
| 2026-05-03 20:46 | 53.35370 | -2.28056 | 234 ft | 13 kts | 225° |
| 2026-05-03 20:47 | 53.35301 | -2.28167 | 233 ft | 15 kts | 224° |
| 2026-05-03 20:47 | 53.35229 | -2.28303 | 231 ft | 17 kts | 231° |
| 2026-05-03 20:47 | 53.35125 | -2.28518 | 228 ft | 19 kts | 231° |
| 2026-05-03 20:47 | 53.35037 | -2.28700 | 226 ft | 21 kts | 229° |
| 2026-05-03 20:48 | 53.34968 | -2.28821 | 224 ft | 21 kts | 226° |
| 2026-05-03 20:48 | 53.34885 | -2.28971 | 222 ft | 18 kts | 226° |
| 2026-05-03 20:48 | 53.34796 | -2.29131 | 220 ft | 20 kts | 229° |
| 2026-05-03 20:48 | 53.34756 | -2.29215 | 219 ft | 4 kts | 232° |
| 2026-05-03 20:49 | 53.34734 | -2.29261 | 218 ft | 6 kts | 229° |
| 2026-05-03 20:49 | 53.34718 | -2.29288 | 222 ft | 0 kts | 221° |
| 2026-05-03 20:50 | 53.34714 | -2.29294 | 222 ft | 2 kts | 220° |
| 2026-05-03 20:51 | 53.34689 | -2.29321 | 217 ft | 6 kts | 206° |
| 2026-05-03 20:51 | 53.34665 | -2.29334 | 217 ft | 0 kts | 194° |
| 2026-05-03 20:53 | 53.34658 | -2.29337 | 217 ft | 3 kts | 194° |
| 2026-05-03 20:53 | 53.34627 | -2.29345 | 221 ft | 7 kts | 186° |
| 2026-05-03 20:53 | 53.34571 | -2.29321 | 216 ft | 10 kts | 154° |
| 2026-05-03 20:54 | 53.34537 | -2.29229 | 216 ft | 10 kts | 78° |
| 2026-05-03 20:54 | 53.34772 | -2.28748 | 223 ft | 81 kts | 51° |
| 2026-05-03 20:54 | 53.35278 | -2.27705 | 242 ft | 146 kts | 50° |
| 2026-05-03 20:55 | 53.35918 | -2.26379 | 915 ft | 146 kts | 50° |
| 2026-05-03 20:55 | 53.36561 | -2.25037 | 1675 ft | 152 kts | 51° |
| 2026-05-03 20:55 | 53.37262 | -2.23587 | 2150 ft | 173 kts | 51° |
| 2026-05-03 20:55 | 53.38100 | -2.21872 | 2567 ft | 203 kts | 49° |
| 2026-05-03 20:56 | 53.39335 | -2.20488 | 3100 ft | 231 kts | 20° |
| 2026-05-03 20:56 | 53.41013 | -2.20371 | 3767 ft | 256 kts | 347° |
| 2026-05-03 20:56 | 53.42539 | -2.21911 | 4635 ft | 271 kts | 315° |
| 2026-05-03 20:56 | 53.43438 | -2.24734 | 4886 ft | 275 kts | 285° |
| 2026-05-03 20:57 | 53.43708 | -2.27901 | 4951 ft | 274 kts | 277° |
| 2026-05-03 20:57 | 53.43984 | -2.31045 | 4913 ft | 272 kts | 286° |
| 2026-05-03 20:57 | 53.44653 | -2.33985 | 4917 ft | 270 kts | 296° |
| 2026-05-03 20:57 | 53.45467 | -2.36831 | 4938 ft | 269 kts | 298° |
| 2026-05-03 20:58 | 53.46305 | -2.39596 | 5017 ft | 270 kts | 298° |
| 2026-05-03 20:58 | 53.46883 | -2.42633 | 5035 ft | 273 kts | 277° |
| 2026-05-03 20:58 | 53.46751 | -2.45774 | 5164 ft | 279 kts | 260° |
| 2026-05-03 20:58 | 53.46395 | -2.48960 | 6344 ft | 277 kts | 260° |
| 2026-05-03 20:59 | 53.46045 | -2.52132 | 7447 ft | 278 kts | 260° |
| 2026-05-03 20:59 | 53.45692 | -2.55338 | 8499 ft | 280 kts | 259° |
| 2026-05-03 20:59 | 53.45337 | -2.58567 | 9551 ft | 283 kts | 259° |
| 2026-05-03 20:59 | 53.45259 | -2.61881 | 10466 ft | 288 kts | 279° |
| 2026-05-03 21:00 | 53.45814 | -2.65129 | 11375 ft | 292 kts | 288° |
| 2026-05-03 21:00 | 53.46252 | -2.67320 | 11997 ft | 295 kts | 288° |
| 2026-05-03 21:00 | 53.47138 | -2.71671 | 13195 ft | 300 kts | 289° |
| 2026-05-03 21:00 | 53.47819 | -2.75015 | 14049 ft | 305 kts | 289° |
| 2026-05-03 21:01 | 53.48506 | -2.78398 | 14842 ft | 308 kts | 289° |
| 2026-05-03 21:01 | 53.49201 | -2.81827 | 15615 ft | 313 kts | 288° |
| 2026-05-03 21:01 | 53.49900 | -2.85292 | 15936 ft | 315 kts | 288° |
| 2026-05-03 21:01 | 53.50599 | -2.88790 | 16021 ft | 315 kts | 288° |
| 2026-05-03 21:02 | 53.51291 | -2.92278 | 16034 ft | 315 kts | 288° |
| 2026-05-03 21:02 | 53.51982 | -2.95767 | 16026 ft | 315 kts | 288° |
| 2026-05-03 21:02 | 53.52672 | -2.99248 | 16034 ft | 315 kts | 288° |
| 2026-05-03 21:02 | 53.53364 | -3.02737 | 16034 ft | 315 kts | 288° |
| 2026-05-03 21:03 | 53.54058 | -3.06229 | 16034 ft | 315 kts | 288° |
| 2026-05-03 21:03 | 53.54752 | -3.09722 | 16041 ft | 315 kts | 288° |
| 2026-05-03 21:03 | 53.55444 | -3.13224 | 16035 ft | 315 kts | 288° |
| 2026-05-03 21:03 | 53.56133 | -3.16727 | 15998 ft | 315 kts | 288° |
| 2026-05-03 21:04 | 53.56819 | -3.20229 | 15969 ft | 315 kts | 288° |
| 2026-05-03 21:04 | 53.57505 | -3.23731 | 15972 ft | 315 kts | 288° |
| 2026-05-03 21:04 | 53.58193 | -3.27235 | 15971 ft | 315 kts | 288° |
| 2026-05-03 21:04 | 53.58878 | -3.30737 | 15968 ft | 316 kts | 288° |
| 2026-05-03 21:05 | 53.59563 | -3.34247 | 15975 ft | 316 kts | 288° |
| 2026-05-03 21:05 | 53.60249 | -3.37755 | 15977 ft | 316 kts | 288° |
| 2026-05-03 21:05 | 53.60935 | -3.41273 | 15969 ft | 316 kts | 288° |
| 2026-05-03 21:05 | 53.61606 | -3.44742 | 15977 ft | 316 kts | 288° |
| 2026-05-03 21:06 | 53.62286 | -3.48254 | 15972 ft | 316 kts | 288° |
| 2026-05-03 21:06 | 53.62962 | -3.51774 | 15977 ft | 316 kts | 288° |
| 2026-05-03 21:06 | 53.63639 | -3.55297 | 15975 ft | 316 kts | 288° |
| 2026-05-03 21:06 | 53.64315 | -3.58817 | 15977 ft | 316 kts | 288° |
| 2026-05-03 21:07 | 53.65103 | -3.62262 | 15982 ft | 315 kts | 297° |
| 2026-05-03 21:07 | 53.66271 | -3.65382 | 15900 ft | 313 kts | 306° |
| 2026-05-03 21:07 | 53.67523 | -3.68360 | 15408 ft | 310 kts | 306° |
| 2026-05-03 21:07 | 53.68765 | -3.71319 | 14816 ft | 308 kts | 306° |
| 2026-05-03 21:08 | 53.69997 | -3.74260 | 14247 ft | 306 kts | 306° |
| 2026-05-03 21:08 | 53.71217 | -3.77184 | 13686 ft | 304 kts | 306° |
| 2026-05-03 21:08 | 53.72424 | -3.80084 | 13084 ft | 301 kts | 306° |
| 2026-05-03 21:08 | 53.73622 | -3.82959 | 12490 ft | 298 kts | 306° |
| 2026-05-03 21:09 | 53.74806 | -3.85803 | 11911 ft | 294 kts | 306° |
| 2026-05-03 21:09 | 53.75976 | -3.88621 | 11342 ft | 291 kts | 306° |
| 2026-05-03 21:09 | 53.77128 | -3.91404 | 10776 ft | 288 kts | 306° |
| 2026-05-03 21:09 | 53.78272 | -3.94166 | 10209 ft | 285 kts | 306° |
| 2026-05-03 21:10 | 53.79404 | -3.96902 | 9630 ft | 282 kts | 306° |
| 2026-05-03 21:10 | 53.80519 | -3.99607 | 9013 ft | 279 kts | 306° |
| 2026-05-03 21:10 | 53.81627 | -4.02298 | 8392 ft | 277 kts | 306° |
| 2026-05-03 21:10 | 53.82731 | -4.04975 | 8014 ft | 276 kts | 307° |
| 2026-05-03 21:11 | 53.83826 | -4.07634 | 7983 ft | 276 kts | 307° |
| 2026-05-03 21:11 | 53.84927 | -4.10311 | 7985 ft | 277 kts | 306° |
| 2026-05-03 21:11 | 53.86025 | -4.12990 | 7987 ft | 277 kts | 307° |
| 2026-05-03 21:11 | 53.87124 | -4.15671 | 7990 ft | 277 kts | 307° |
| 2026-05-03 21:12 | 53.88224 | -4.18349 | 7992 ft | 277 kts | 307° |
| 2026-05-03 21:12 | 53.89326 | -4.21032 | 7993 ft | 277 kts | 307° |
| 2026-05-03 21:12 | 53.90223 | -4.23917 | 7992 ft | 280 kts | 288° |
| 2026-05-03 21:12 | 53.90585 | -4.27149 | 7667 ft | 277 kts | 280° |
| 2026-05-03 21:13 | 53.90854 | -4.30378 | 7010 ft | 276 kts | 279° |
| 2026-05-03 21:13 | 53.91106 | -4.33594 | 6392 ft | 274 kts | 279° |
| 2026-05-03 21:13 | 53.91351 | -4.36794 | 5799 ft | 274 kts | 279° |
| 2026-05-03 21:13 | 53.91593 | -4.39981 | 5402 ft | 271 kts | 279° |
| 2026-05-03 21:14 | 53.91828 | -4.43100 | 4981 ft | 269 kts | 279° |
| 2026-05-03 21:14 | 53.92061 | -4.46237 | 4541 ft | 268 kts | 279° |
| 2026-05-03 21:14 | 53.92297 | -4.49410 | 4082 ft | 267 kts | 279° |
| 2026-05-03 21:14 | 53.92528 | -4.52517 | 3635 ft | 265 kts | 279° |
| 2026-05-03 21:15 | 53.92757 | -4.55571 | 3205 ft | 264 kts | 279° |
| 2026-05-03 21:15 | 53.92989 | -4.58646 | 2759 ft | 262 kts | 279° |
| 2026-05-03 21:15 | 53.93228 | -4.61712 | 2289 ft | 262 kts | 279° |
| 2026-05-03 21:15 | 53.93513 | -4.64794 | 2009 ft | 261 kts | 286° |
| 2026-05-03 21:16 | 53.94211 | -4.67584 | 2004 ft | 261 kts | 298° |
| 2026-05-03 21:16 | 53.95035 | -4.70323 | 2003 ft | 261 kts | 300° |
| 2026-05-03 21:16 | 53.95857 | -4.73060 | 2004 ft | 261 kts | 300° |
| 2026-05-03 21:16 | 53.96657 | -4.75735 | 1998 ft | 244 kts | 299° |
| 2026-05-03 21:17 | 53.97464 | -4.78136 | 1994 ft | 223 kts | 314° |
| 2026-05-03 21:17 | 53.98229 | -4.79237 | 2006 ft | 208 kts | 330° |
| 2026-05-03 21:17 | 53.99822 | -4.80845 | 2007 ft | 193 kts | 334° |
| 2026-05-03 21:17 | 54.00960 | -4.81944 | 2004 ft | 185 kts | 334° |
| 2026-05-03 21:18 | 54.02072 | -4.83023 | 2006 ft | 183 kts | 334° |
| 2026-05-03 21:18 | 54.03171 | -4.84085 | 2002 ft | 181 kts | 336° |
| 2026-05-03 21:18 | 54.04364 | -4.84485 | 2006 ft | 176 kts | 9° |
| 2026-05-03 21:18 | 54.05459 | -4.83693 | 2012 ft | 172 kts | 41° |
| 2026-05-03 21:19 | 54.06227 | -4.82229 | 2037 ft | 159 kts | 56° |
| 2026-05-03 21:19 | 54.06696 | -4.80623 | 2002 ft | 144 kts | 70° |
| 2026-05-03 21:19 | 54.06787 | -4.78984 | 1904 ft | 134 kts | 89° |
| 2026-05-03 21:19 | 54.06743 | -4.77426 | 1856 ft | 130 kts | 89° |
| 2026-05-03 21:20 | 54.06752 | -4.75897 | 1737 ft | 128 kts | 85° |
| 2026-05-03 21:20 | 54.06828 | -4.74390 | 1554 ft | 127 kts | 79° |
| 2026-05-03 21:20 | 54.07005 | -4.72919 | 1348 ft | 126 kts | 76° |
| 2026-05-03 21:20 | 54.07162 | -4.71452 | 1266 ft | 126 kts | 78° |
| 2026-05-03 21:21 | 54.07363 | -4.69983 | 1039 ft | 128 kts | 74° |
| 2026-05-03 21:21 | 54.07552 | -4.68510 | 824 ft | 126 kts | 75° |
| 2026-05-03 21:21 | 54.07749 | -4.67056 | 571 ft | 126 kts | 73° |
| 2026-05-03 21:21 | 54.07926 | -4.65588 | 367 ft | 126 kts | 75° |
| 2026-05-03 21:22 | 54.08112 | -4.64134 | 155 ft | 126 kts | 75° |
| 2026-05-03 21:22 | 54.08292 | -4.62699 | 41 ft | 118 kts | 77° |
| 2026-05-03 21:22 | 54.08408 | -4.61776 | 43 ft | 22 kts | 79° |
| 2026-05-03 21:22 | 54.08435 | -4.61525 | 42 ft | 22 kts | 79° |
| 2026-05-03 21:23 | 54.08501 | -4.61430 | 41 ft | 9 kts | 340° |
| 2026-05-03 21:23 | 54.08534 | -4.61516 | 43 ft | 9 kts | 277° |
| 2026-05-03 21:23 | 54.08541 | -4.61629 | 44 ft | 10 kts | 274° |
| 2026-05-03 21:23 | 54.08547 | -4.61747 | 45 ft | 10 kts | 276° |
| 2026-05-03 21:24 | 54.08553 | -4.61861 | 46 ft | 9 kts | 271° |
| 2026-05-03 21:24 | 54.08543 | -4.61973 | 47 ft | 11 kts | 258° |
| 2026-05-03 21:24 | 54.08526 | -4.62107 | 48 ft | 12 kts | 259° |
| 2026-05-03 21:24 | 54.08508 | -4.62240 | 49 ft | 11 kts | 257° |
| 2026-05-03 21:25 | 54.08492 | -4.62370 | 48 ft | 11 kts | 259° |
| 2026-05-03 21:25 | 54.08475 | -4.62507 | 46 ft | 14 kts | 258° |
| 2026-05-03 21:25 | 54.08456 | -4.62672 | 48 ft | 11 kts | 259° |
| 2026-05-03 21:25 | 54.08452 | -4.62702 | 48 ft | 3 kts | 259° |
| 2026-05-03 21:26 | 54.08442 | -4.62783 | 46 ft | 10 kts | 258° |
| 2026-05-03 21:26 | 54.08425 | -4.62917 | 43 ft | 13 kts | 257° |
| 2026-05-03 21:26 | 54.08455 | -4.62992 | 43 ft | 8 kts | 348° |
| 2026-05-03 21:26 | 54.08510 | -4.63015 | 44 ft | 9 kts | 345° |
| 2026-05-03 21:27 | 54.08580 | -4.63045 | 46 ft | 12 kts | 339° |
| 2026-05-03 21:27 | 54.08617 | -4.63173 | 45 ft | 13 kts | 250° |
| 2026-05-03 21:27 | 54.08593 | -4.63195 | 44 ft | 1 kts | 188° |
| 2026-05-03 21:27 | 54.08573 | -4.63239 | 44 ft | 10 kts | 233° |
| 2026-05-03 21:28 | 54.08530 | -4.63332 | 42 ft | 5 kts | 243° |
| 2026-05-03 21:28 | 54.08530 | -4.63373 | 42 ft | 1 kts | 252° |
| 2026-05-03 21:28 | 54.08520 | -4.63396 | 39 ft | 4 kts | 237° |
| 2026-05-03 21:28 | 54.08508 | -4.63414 | 40 ft | 0 kts | 223° |